Time;durP1;ratioP1;P1;durP2;ratioP2;P2;SDS_P1;SDS_P2;PMS_P1;PMS_P2;Temp;Humidity;BMP_temperature;BMP_pressure;BME280_temperature;BME280_humidity;BME280_pressure;Samples;Min_cycle;Max_cycle;Signal;HPM_P1;HPM_P2
2022/06/02 03:37:10;;;;;;;2.17;1.45;;;;;;;14.87;52.34;96864.25;6158843;23;20009;-86
2022/06/02 03:40:14;;;;;;;3.17;1.17;;;;;;;14.89;52.09;96867.50;6161600;23;20028;-87
2022/06/02 03:42:54;;;;;;;3.33;1.23;;;;;;;14.89;51.62;96866.66;6160990;23;20024;-89
2022/06/02 03:46:00;;;;;;;2.47;1.35;;;;;;;14.90;51.70;96873.53;6159643;23;20097;-91
2022/06/02 03:49:13;;;;;;;2.97;1.20;;;;;;;14.93;51.90;96873.94;6160189;23;20024;-86
2022/06/02 03:51:55;;;;;;;4.10;1.77;;;;;;;14.95;51.74;96879.00;6157548;23;20465;-92
2022/06/02 03:55:06;;;;;;;1.30;1.20;;;;;;;14.98;52.10;96878.59;6160581;23;20027;-90
2022/06/02 03:58:06;;;;;;;1.75;1.50;;;;;;;15.01;51.68;96886.88;6161950;23;20024;-86
2022/06/02 04:00:59;;;;;;;2.88;1.50;;;;;;;15.01;51.22;96891.31;6164638;23;20469;-91
2022/06/02 04:03:53;;;;;;;5.95;1.95;;;;;;;14.97;50.87;96892.72;6167550;23;20369;-91
2022/06/02 04:06:41;;;;;;;;;;;;;;;14.94;50.78;96891.31;6161876;23;20017;-91
2022/06/02 04:09:38;;;;;;;3.88;1.70;;;;;;;14.89;50.67;96896.38;6162385;23;19924;-92
2022/06/02 04:15:34;;;;;;;2.33;1.88;;;;;;;14.79;51.04;96895.97;6160039;23;20040;-90
2022/06/02 04:18:21;;;;;;;4.22;2.47;;;;;;;14.72;50.83;96898.59;6158979;23;20013;-92
2022/06/02 04:21:14;;;;;;;3.95;2.00;;;;;;;14.67;51.03;96895.75;6160248;23;20528;-90
2022/06/02 04:24:24;;;;;;;2.40;1.60;;;;;;;14.70;50.93;96895.34;6161796;23;20041;-90
2022/06/02 04:27:13;;;;;;;2.60;1.88;;;;;;;14.70;51.02;96894.56;6138930;23;20073;-91
2022/06/02 04:30:07;;;;;;;4.25;1.70;;;;;;;14.70;51.78;96902.44;6132340;23;20018;-90
2022/06/02 04:35:51;;;;;;;2.30;1.45;;;;;;;14.73;52.49;96902.81;6127833;23;20036;-85
2022/06/02 04:38:42;;;;;;;2.92;1.70;;;;;;;14.78;52.10;96912.72;6131000;23;20045;-90
2022/06/02 04:41:32;;;;;;;1.77;1.60;;;;;;;14.82;51.24;96913.94;6130706;23;20022;-91
2022/06/02 04:44:18;;;;;;;2.10;1.90;;;;;;;14.82;51.00;96914.75;6130443;23;20405;-85
2022/06/02 04:47:09;;;;;;;2.47;2.03;;;;;;;14.84;50.65;96915.34;6132427;23;20029;-89
2022/06/02 04:50:11;;;;;;;3.15;1.38;;;;;;;14.78;50.51;96908.28;6132196;23;20014;-86
2022/06/02 04:52:56;;;;;;;3.63;1.63;;;;;;;14.77;51.07;96914.53;6132107;23;20018;-90
2022/06/02 04:55:40;;;;;;;2.03;1.70;;;;;;;14.77;50.63;96911.91;6132080;23;20025;-89
2022/06/02 04:58:28;;;;;;;1.80;1.70;;;;;;;14.78;50.79;96916.19;6131934;23;20022;-86
2022/06/02 05:01:09;;;;;;;4.82;1.80;;;;;;;14.76;51.15;96915.56;6137297;23;20018;-87
2022/06/02 05:03:52;;;;;;;3.03;2.10;;;;;;;14.71;51.57;96911.91;6131721;23;20048;-91
2022/06/02 05:06:32;;;;;;;5.18;2.10;;;;;;;14.68;51.75;96915.75;6132636;23;20026;-87
2022/06/02 05:09:17;;;;;;;2.55;2.08;;;;;;;14.67;52.39;96910.69;6130170;23;20069;-88
2022/06/02 05:21:42;;;;;;;4.60;2.85;;;;;;;14.91;51.22;96925.06;6130404;23;20049;-91
2022/06/02 05:24:40;;;;;;;8.00;3.33;;;;;;;14.89;51.31;96919.19;6129754;23;20064;-84
2022/06/02 05:27:37;;;;;;;8.50;2.50;;;;;;;14.90;51.81;96924.25;6140418;23;20017;-85
2022/06/02 05:30:33;;;;;;;3.95;2.08;;;;;;;14.91;51.38;96920.63;6159626;23;20032;-81
2022/06/02 05:33:18;;;;;;;6.90;2.70;;;;;;;14.93;51.15;96925.66;6160356;23;20105;-79
2022/06/02 05:36:10;;;;;;;2.88;2.58;;;;;;;14.89;50.90;96927.91;6161801;23;20437;-79
2022/06/02 05:38:56;;;;;;;4.05;1.90;;;;;;;14.89;51.75;96927.06;6135472;23;20064;-83
2022/06/02 05:41:39;;;;;;;3.40;1.90;;;;;;;14.91;50.37;96938.19;6134845;23;20053;-78
2022/06/02 05:44:15;;;;;;;3.65;1.90;;;;;;;14.95;50.47;96939.41;6134833;23;20049;-78
2022/06/02 05:47:02;;;;;;;2.30;1.73;;;;;;;14.98;49.95;96941.66;6138887;23;20052;-83
2022/06/02 05:49:38;;;;;;;1.60;1.27;;;;;;;15.04;50.68;96938.19;6140040;23;20045;-85
2022/06/02 05:52:16;;;;;;;3.72;1.35;;;;;;;15.09;50.10;96941.06;6138282;23;20033;-83
2022/06/02 05:55:06;;;;;;;7.95;1.70;;;;;;;15.15;49.55;96948.13;6137215;23;20025;-79
2022/06/02 05:57:37;;;;;;;3.35;2.28;;;;;;;15.18;49.54;96952.16;6134152;23;20022;-81
2022/06/02 06:00:20;;;;;;;3.15;1.85;;;;;;;15.22;49.02;96951.56;6132268;23;20428;-80
2022/06/02 06:03:19;;;;;;;4.30;2.35;;;;;;;15.28;47.73;96954.38;6132413;23;20022;-82
2022/06/02 06:05:50;;;;;;;3.75;1.58;;;;;;;15.30;47.56;96949.72;6132481;23;20028;-79
2022/06/02 06:08:29;;;;;;;3.72;2.25;;;;;;;15.31;46.91;96952.16;6131540;23;20014;-81
2022/06/02 06:11:11;;;;;;;5.95;2.10;;;;;;;15.38;47.64;96957.41;6131541;23;20022;-78
2022/06/02 06:13:52;;;;;;;2.27;1.40;;;;;;;15.41;47.14;96963.09;6132456;23;20017;-78
2022/06/02 06:16:26;;;;;;;3.28;1.40;;;;;;;15.48;47.33;96960.44;6133749;23;20073;-80
2022/06/02 06:19:06;;;;;;;4.38;1.80;;;;;;;15.54;46.67;96956.97;6134660;23;20078;-87
2022/06/02 06:21:49;;;;;;;1.40;1.20;;;;;;;15.59;47.13;96962.47;6130500;23;20105;-83
2022/06/02 06:24:43;;;;;;;3.00;1.67;;;;;;;15.66;47.26;96965.88;6131697;23;20466;-80
2022/06/02 06:27:21;;;;;;;2.20;1.73;;;;;;;15.72;47.39;96968.72;6132633;23;20029;-79
2022/06/02 06:30:02;;;;;;;2.40;1.63;;;;;;;15.77;47.34;96958.41;6132554;23;20565;-79
2022/06/02 06:32:39;;;;;;;3.58;1.85;;;;;;;15.83;47.14;96954.94;6131939;23;20021;-83
2022/06/02 06:35:19;;;;;;;4.55;1.77;;;;;;;15.88;46.59;96962.22;6131998;23;20335;-84
2022/06/02 06:38:06;;;;;;;4.55;1.67;;;;;;;15.90;46.89;96955.75;6130993;23;20483;-85
2022/06/02 06:41:02;;;;;;;1.60;1.50;;;;;;;15.96;47.20;96962.81;6135141;23;20022;-82
2022/06/02 06:43:45;;;;;;;3.67;1.52;;;;;;;15.99;46.22;96961.59;6134177;23;20413;-80
2022/06/02 06:46:22;;;;;;;1.05;1.02;;;;;;;16.03;46.97;96957.53;6130467;23;20021;-79
2022/06/02 06:48:55;;;;;;;2.10;1.10;;;;;;;16.09;46.43;96961.94;6130952;23;20089;-80
2022/06/02 06:51:33;;;;;;;1.67;0.93;;;;;;;16.17;46.97;96969.63;6130442;23;20060;-79
2022/06/02 06:54:13;;;;;;;3.65;1.33;;;;;;;16.25;46.81;96961.50;6130780;23;20026;-84
2022/06/02 06:56:50;;;;;;;3.55;0.88;;;;;;;16.33;45.39;96970.16;6132574;23;20049;-82
2022/06/02 06:59:32;;;;;;;2.92;1.08;;;;;;;16.39;45.04;96972.78;6132978;23;20064;-82
2022/06/02 07:02:08;;;;;;;4.00;1.37;;;;;;;16.43;44.38;96975.81;6133877;23;20029;-82
2022/06/02 07:04:47;;;;;;;0.85;0.85;;;;;;;16.48;45.05;96982.03;6131747;23;20409;-81
2022/06/02 07:07:20;;;;;;;3.47;1.02;;;;;;;16.56;44.52;96977.56;6132043;23;20353;-80
2022/06/02 07:09:55;;;;;;;4.53;1.00;;;;;;;16.62;43.53;96974.09;6131984;23;20026;-81
2022/06/02 07:15:27;;;;;;;2.45;1.10;;;;;;;16.76;43.18;96975.63;6131074;23;20097;-78
2022/06/02 07:18:02;;;;;;;1.33;1.10;;;;;;;16.80;42.96;96973.41;6132985;23;20021;-81
2022/06/02 07:20:45;;;;;;;5.05;1.10;;;;;;;16.85;41.96;96976.22;6133648;23;20033;-81
2022/06/02 07:23:21;;;;;;;5.25;1.08;;;;;;;16.92;42.33;96976.16;6133964;23;20026;-83
2022/06/02 07:26:01;;;;;;;1.70;0.95;;;;;;;16.98;42.12;96975.31;6134210;23;20097;-82
2022/06/02 07:28:38;;;;;;;3.15;1.15;;;;;;;17.04;42.18;96985.03;6134548;23;20053;-83
2022/06/02 07:31:23;;;;;;;2.45;1.00;;;;;;;17.10;42.19;96971.00;6133119;23;20054;-81
2022/06/02 07:33:59;;;;;;;2.50;1.05;;;;;;;17.19;42.35;96972.34;6132899;23;20026;-80
2022/06/02 07:36:58;;;;;;;1.83;0.65;;;;;;;17.28;42.38;96971.03;6133130;23;20026;-79
2022/06/02 07:39:49;;;;;;;1.92;0.80;;;;;;;17.37;41.78;96973.44;6135652;23;20038;-79
2022/06/02 07:42:45;;;;;;;13.40;1.85;;;;;;;17.45;41.83;96975.78;6118482;23;20026;-84
2022/06/02 07:45:32;;;;;;;1.58;0.90;;;;;;;17.54;41.09;96974.50;6137258;23;20053;-85
2022/06/02 07:48:24;;;;;;;1.73;0.95;;;;;;;17.60;41.04;96976.28;6136491;23;20069;-82
2022/06/02 07:50:59;;;;;;;2.42;0.90;;;;;;;17.66;41.74;96962.19;6134140;23;20335;-82
2022/06/02 07:53:36;;;;;;;1.67;0.82;;;;;;;17.76;41.31;96966.19;6136757;23;20528;-81
2022/06/02 07:56:13;;;;;;;0.98;0.93;;;;;;;17.84;41.12;96963.25;6137108;23;20053;-80
2022/06/02 07:58:51;;;;;;;1.27;0.70;;;;;;;17.90;41.03;96963.19;6136479;23;20045;-80
2022/06/02 08:01:47;;;;;;;2.67;1.08;;;;;;;17.99;40.78;96970.81;6136925;23;20022;-81
2022/06/02 08:04:25;;;;;;;1.05;0.77;;;;;;;18.07;41.36;96966.06;6137978;23;20049;-83
2022/06/02 08:07:04;;;;;;;2.67;0.80;;;;;;;18.16;40.41;96965.78;6137235;23;20068;-81
2022/06/02 08:09:46;;;;;;;2.35;0.80;;;;;;;18.26;40.57;96966.06;6136081;23;20022;-80
2022/06/02 08:12:22;;;;;;;0.95;0.85;;;;;;;18.33;38.19;96966.78;6136179;23;20387;-81
2022/06/02 08:15:00;;;;;;;13.60;2.10;;;;;;;18.39;39.09;96971.19;6136455;23;20022;-81
2022/06/02 08:17:48;;;;;;;2.17;0.70;;;;;;;18.48;40.01;96972.50;6136752;23;20025;-79
2022/06/02 08:20:33;;;;;;;2.10;1.00;;;;;;;18.61;40.04;96976.00;6135110;23;20021;-80
2022/06/02 08:23:12;;;;;;;2.92;1.25;;;;;;;18.73;40.07;96971.56;6135497;23;20030;-78
2022/06/02 08:25:49;;;;;;;2.13;0.90;;;;;;;18.80;39.47;96974.13;6135552;23;20026;-82
2022/06/02 08:28:32;;;;;;;2.38;0.80;;;;;;;18.85;39.46;96969.81;6135186;23;20026;-81
2022/06/02 08:31:11;;;;;;;4.10;0.90;;;;;;;18.93;40.02;96974.78;6135597;23;20492;-82
2022/06/02 08:33:49;;;;;;;2.90;1.23;;;;;;;19.01;39.81;96978.91;6136364;23;20077;-80
2022/06/02 08:36:27;;;;;;;2.92;1.00;;;;;;;19.08;39.50;96976.16;6135872;23;20033;-80
2022/06/02 08:39:28;;;;;;;1.23;0.60;;;;;;;19.14;39.38;96973.44;6135413;23;20524;-79
2022/06/02 08:42:27;;;;;;;2.67;0.80;;;;;;;19.24;39.84;96978.16;6134326;23;20014;-79
2022/06/02 08:45:40;;;;;;;2.58;0.98;;;;;;;19.25;38.87;96982.41;6134194;23;20053;-80
2022/06/02 08:48:37;;;;;;;2.60;0.88;;;;;;;19.32;39.06;96980.47;6135691;23;20022;-81
2022/06/02 08:51:51;;;;;;;2.30;0.60;;;;;;;19.42;39.04;96981.75;6088589;23;20026;-81
2022/06/02 08:55:15;;;;;;;7.13;1.27;;;;;;;19.53;38.95;96978.31;6136905;23;20030;-80
2022/06/02 08:58:23;;;;;;;;;;;;;;;19.60;38.51;96975.56;6019355;23;20083;-80
2022/06/02 09:01:06;;;;;;;2.13;0.90;;;;;;;19.65;38.38;96979.09;6017335;23;19952;-80
2022/06/02 09:04:20;;;;;;;6.68;1.13;;;;;;;19.76;38.51;96975.69;6134903;23;20518;-78
2022/06/02 09:07:20;;;;;;;2.03;0.80;;;;;;;19.88;37.79;96977.53;6135825;23;20046;-78
2022/06/02 09:10:39;;;;;;;3.08;0.73;;;;;;;19.99;38.21;96979.38;6134894;23;20030;-80
2022/06/02 09:13:27;;;;;;;5.85;1.10;;;;;;;20.08;36.87;96979.81;6135270;23;20353;-78
2022/06/02 09:16:17;;;;;;;3.00;0.93;;;;;;;20.08;36.98;96972.66;6134235;23;20017;-78
2022/06/02 09:19:01;;;;;;;1.17;0.77;;;;;;;20.17;37.82;96981.84;6130219;23;20026;-79
2022/06/02 09:21:55;;;;;;;3.88;0.88;;;;;;;20.25;37.07;96978.06;6133158;23;20022;-81
2022/06/02 09:24:28;;;;;;;5.25;1.25;;;;;;;20.31;37.06;96984.25;6134173;23;20076;-83
2022/06/02 09:27:44;;;;;;;3.88;1.23;;;;;;;20.40;37.61;96987.31;6137556;23;20025;-83
2022/06/02 09:30:15;;;;;;;2.60;0.77;;;;;;;20.50;37.61;96993.63;6110171;23;20017;-79
2022/06/02 09:33:33;;;;;;;2.08;0.88;;;;;;;20.60;37.36;96984.28;6131599;23;20057;-80
2022/06/02 09:35:58;;;;;;;1.60;0.75;;;;;;;20.66;37.55;96984.19;6130752;23;20033;-79
2022/06/02 09:38:56;;;;;;;1.67;1.17;;;;;;;20.77;37.42;96985.97;6131069;23;20037;-79
2022/06/02 09:41:54;;;;;;;0.90;0.77;;;;;;;20.87;37.65;96980.03;6133579;23;20018;-78
2022/06/02 09:44:28;;;;;;;1.85;1.13;;;;;;;20.93;37.11;96978.28;6134364;23;20025;-78
2022/06/02 09:47:22;;;;;;;2.47;0.88;;;;;;;20.95;37.20;96974.34;6133201;23;20041;-82
2022/06/02 09:50:34;;;;;;;4.07;1.10;;;;;;;21.04;37.09;96984.59;6133999;23;20029;-81
2022/06/02 09:53:34;;;;;;;1.02;1.02;;;;;;;21.15;37.29;96986.38;6133900;23;20421;-79
2022/06/02 09:56:32;;;;;;;3.78;0.65;;;;;;;21.23;36.82;96978.03;6133411;23;20056;-82
2022/06/02 09:59:11;;;;;;;0.93;0.70;;;;;;;21.29;37.29;96982.34;6132956;23;20061;-82
2022/06/02 10:01:54;;;;;;;1.58;0.80;;;;;;;21.30;36.47;96989.28;6131351;23;20102;-79
2022/06/02 10:04:39;;;;;;;2.80;0.90;;;;;;;21.35;37.07;96984.03;6131040;23;20018;-79
2022/06/02 10:07:18;;;;;;;3.33;1.20;;;;;;;21.45;36.92;96985.25;6132057;23;20018;-78
2022/06/02 10:10:09;;;;;;;2.88;0.95;;;;;;;21.52;36.20;96983.28;6129985;23;20097;-79
2022/06/02 10:12:58;;;;;;;2.40;0.90;;;;;;;21.55;36.40;96994.19;6130319;23;20096;-80
2022/06/02 10:15:47;;;;;;;0.82;0.80;;;;;;;21.62;36.73;96986.06;6130706;23;20021;-80
2022/06/02 10:18:39;;;;;;;1.30;0.80;;;;;;;21.68;35.87;96985.09;6130074;23;20026;-79
2022/06/02 10:21:10;;;;;;;2.55;0.82;;;;;;;;;;6132980;23;20421;-82
2022/06/02 10:24:04;;;;;;;2.05;0.98;;;;;;;21.83;36.55;96981.06;6134114;23;20022;-84
2022/06/02 10:26:44;;;;;;;1.85;0.65;;;;;;;21.89;36.10;96978.25;6134044;23;20045;-84
2022/06/02 10:29:36;;;;;;;4.50;1.02;;;;;;;21.95;35.78;96973.78;6134610;23;20025;-81
2022/06/02 10:32:48;;;;;;;1.83;0.98;;;;;;;22.01;36.53;96967.50;6134005;23;20057;-82
2022/06/02 10:35:34;;;;;;;1.00;0.70;;;;;;;22.08;36.36;96962.78;6126112;23;20026;-82
2022/06/02 10:38:16;;;;;;;4.32;0.95;;;;;;;22.16;35.89;96969.56;6133094;23;20030;-79
2022/06/02 10:41:07;;;;;;;1.30;1.00;;;;;;;22.21;35.87;96965.13;6132011;23;20089;-79
2022/06/02 10:43:51;;;;;;;1.77;1.23;;;;;;;22.28;36.00;96958.81;6133367;23;20046;-82
2022/06/02 10:46:54;;;;;;;4.10;0.95;;;;;;;22.32;35.94;96958.06;6134385;23;20022;-81
2022/06/02 10:49:27;;;;;;;1.73;0.98;;;;;;;22.32;35.52;96951.97;6133768;23;20028;-82
2022/06/02 10:52:46;;;;;;;0.95;0.63;;;;;;;22.36;35.42;96950.41;6132359;23;20085;-82
2022/06/02 10:55:39;;;;;;;1.90;0.80;;;;;;;22.44;36.47;96949.97;6131454;23;20058;-84
2022/06/02 10:58:54;;;;;;;2.75;1.10;;;;;;;22.54;35.37;96952.75;6132363;23;20022;-80
2022/06/02 11:01:57;;;;;;;3.33;1.15;;;;;;;22.59;35.65;96947.50;6131497;23;20477;-80
2022/06/02 11:05:15;;;;;;;1.13;0.75;;;;;;;22.63;35.64;96950.47;6132174;23;20079;-79
2022/06/02 11:08:43;;;;;;;2.58;1.17;;;;;;;22.62;35.12;96940.88;6092927;23;20026;-82
2022/06/02 11:11:36;;;;;;;1.60;0.90;;;;;;;22.61;35.45;96932.09;6132397;23;20022;-79
2022/06/02 11:14:50;;;;;;;5.00;0.77;;;;;;;22.66;35.63;96936.66;6134139;23;20405;-79
2022/06/02 11:18:02;;;;;;;0.85;0.82;;;;;;;22.69;35.36;96944.13;6080466;23;20102;-79
2022/06/02 11:20:55;;;;;;;1.80;0.98;;;;;;;22.75;35.57;96944.97;6134358;23;20050;-78
2022/06/02 11:23:55;;;;;;;0.95;0.80;;;;;;;22.81;36.30;96934.13;6134729;23;20061;-80
2022/06/02 11:26:58;;;;;;;2.80;0.98;;;;;;;22.89;35.42;96930.19;6118732;23;20057;-79
2022/06/02 11:30:03;;;;;;;2.20;0.80;;;;;;;22.97;35.34;96932.41;6133607;23;20069;-78
2022/06/02 11:32:44;;;;;;;4.38;0.90;;;;;;;23.06;35.30;96929.31;6134036;23;20085;-81
2022/06/02 11:35:37;;;;;;;3.75;0.90;;;;;;;23.13;35.00;96933.38;6133293;23;20022;-80
2022/06/02 11:38:47;;;;;;;1.50;1.00;;;;;;;23.18;35.16;96922.78;6134512;23;20053;-80
2022/06/02 11:41:28;;;;;;;2.78;1.00;;;;;;;23.20;34.16;96914.56;6133612;23;20097;-81
2022/06/02 11:44:07;;;;;;;1.38;0.90;;;;;;;23.16;34.30;96906.28;6135388;23;20077;-82
2022/06/02 11:46:54;;;;;;;2.03;0.98;;;;;;;23.18;34.85;96917.47;6135519;23;20022;-85
2022/06/02 11:50:08;;;;;;;2.25;1.00;;;;;;;23.22;34.39;96918.56;6135923;23;20389;-81
2022/06/02 11:52:59;;;;;;;1.73;0.90;;;;;;;23.24;34.40;96915.63;6136193;23;20049;-81
2022/06/02 11:55:33;;;;;;;1.85;1.00;;;;;;;23.29;34.59;96918.34;6137385;23;20022;-82
2022/06/02 11:58:29;;;;;;;4.43;0.95;;;;;;;23.38;35.16;96916.81;6136279;23;20033;-83
2022/06/02 12:01:15;;;;;;;6.85;1.08;;;;;;;23.45;34.22;96877.44;6137398;23;20056;-84
2022/06/02 12:04:04;;;;;;;6.80;1.17;;;;;;;23.51;33.60;96904.13;6137198;23;20413;-83
2022/06/02 12:07:00;;;;;;;2.15;1.25;;;;;;;23.58;33.74;96915.34;6137201;23;20026;-80
2022/06/02 12:10:08;;;;;;;2.60;1.02;;;;;;;23.62;33.83;96905.78;6122526;23;20038;-83
2022/06/02 12:12:56;;;;;;;1.50;0.70;;;;;;;23.66;33.93;96901.53;6020597;23;20084;-83
2022/06/02 12:15:59;;;;;;;0.90;0.90;;;;;;;23.72;33.71;96900.47;6022683;23;20051;-82
2022/06/02 12:18:39;;;;;;;1.85;1.20;;;;;;;23.79;33.95;96901.09;6125242;23;20369;-82
2022/06/02 12:21:39;;;;;;;1.65;1.10;;;;;;;23.82;34.35;96892.59;6138289;23;20026;-81
2022/06/02 12:24:22;;;;;;;3.28;1.52;;;;;;;23.84;33.30;96895.00;6140268;23;20122;-82
2022/06/02 12:27:09;;;;;;;4.28;1.00;;;;;;;23.82;33.44;96889.13;6138998;23;20026;-81
2022/06/02 12:30:02;;;;;;;1.77;0.90;;;;;;;23.83;33.94;96893.38;6138480;23;20492;-83
2022/06/02 12:32:57;;;;;;;2.55;0.88;;;;;;;23.83;33.63;96896.88;6138669;23;20022;-81
2022/06/02 12:35:57;;;;;;;2.50;1.00;;;;;;;23.81;33.60;96893.66;6138701;23;20077;-81
2022/06/02 12:38:48;;;;;;;3.42;1.05;;;;;;;23.75;34.28;96894.69;6138238;23;20041;-81
2022/06/02 12:41:26;;;;;;;1.02;0.90;;;;;;;23.77;33.84;96891.78;6137437;23;20331;-81
2022/06/02 12:44:34;;;;;;;3.17;1.48;;;;;;;23.80;34.34;96889.38;6136282;23;20018;-83
2022/06/02 12:47:26;;;;;;;2.35;0.80;;;;;;;23.85;34.27;96885.94;6136449;23;20030;-79
2022/06/02 12:50:27;;;;;;;1.27;0.98;;;;;;;23.87;34.05;96901.66;6124178;23;20106;-83
2022/06/02 12:53:24;;;;;;;0.80;0.80;;;;;;;23.86;34.14;96903.53;6135829;23;20065;-79
2022/06/02 12:56:15;;;;;;;1.30;1.02;;;;;;;23.90;34.19;96906.47;6136578;23;20420;-83
2022/06/02 12:59:23;;;;;;;3.97;1.27;;;;;;;23.91;34.18;96908.88;6136272;23;20104;-80
2022/06/02 13:02:04;;;;;;;2.35;1.40;;;;;;;23.90;33.65;96911.78;6134971;23;20021;-81
2022/06/02 13:04:53;;;;;;;1.52;1.00;;;;;;;23.87;33.35;96907.00;6134851;23;20065;-81
2022/06/02 13:07:56;;;;;;;1.23;1.02;;;;;;;23.83;33.40;96912.84;6133921;23;20092;-81
2022/06/02 13:10:45;;;;;;;1.30;1.20;;;;;;;23.83;33.33;96899.53;6135215;23;20061;-81
2022/06/02 13:16:27;;;;;;;4.65;1.00;;;;;;;23.87;33.84;96907.00;5097366;28;20732;-79
2022/06/02 13:19:31;;;;;;;1.88;1.00;;;;;;;23.89;33.22;96895.00;5076123;28;20048;-79
2022/06/02 13:22:32;;;;;;;1.17;0.80;;;;;;;23.94;34.18;96888.91;5078744;28;20045;-82
2022/06/02 13:25:16;;;;;;;1.00;0.90;;;;;;;23.99;33.98;96880.94;5082032;28;20136;-83
2022/06/02 13:28:13;;;;;;;3.25;0.90;;;;;;;24.02;33.53;96889.19;5082211;28;20072;-80
2022/06/02 13:30:59;;;;;;;3.03;1.00;;;;;;;24.03;33.51;96879.34;5081435;28;20135;-82
2022/06/02 13:33:58;;;;;;;0.95;0.85;;;;;;;23.99;34.29;96868.41;5081409;28;20125;-84
2022/06/02 13:36:32;;;;;;;2.50;1.10;;;;;;;23.95;33.88;96864.66;5080093;28;20049;-82
2022/06/02 13:39:34;;;;;;;4.30;0.90;;;;;;;23.93;33.98;96874.00;5080563;28;20049;-82
2022/06/02 13:42:31;;;;;;;2.30;0.80;;;;;;;23.90;33.69;96885.97;5079600;28;20576;-80
2022/06/02 13:45:41;;;;;;;1.45;1.10;;;;;;;23.88;33.43;96882.75;5078584;28;20128;-80
2022/06/02 13:48:46;;;;;;;3.60;1.15;;;;;;;23.89;34.22;96880.91;5078285;28;20052;-80
2022/06/02 13:51:42;;;;;;;0.98;0.80;;;;;;;23.89;33.82;96878.22;5077774;28;20044;-80
2022/06/02 13:57:40;;;;;;;1.23;0.75;;;;;;;23.92;33.90;96872.38;5077300;28;20577;-80
2022/06/02 14:00:19;;;;;;;5.47;0.90;;;;;;;23.91;33.33;96876.91;5079279;28;20318;-78
2022/06/02 14:03:10;;;;;;;2.67;1.05;;;;;;;23.89;33.18;96879.03;5076994;28;20059;-80
2022/06/02 14:05:47;;;;;;;5.95;0.90;;;;;;;23.87;33.56;96878.47;5076085;28;20114;-79
2022/06/02 14:08:32;;;;;;;3.38;0.98;;;;;;;23.87;33.43;96878.47;5076604;28;20080;-79
2022/06/02 14:11:17;;;;;;;2.00;1.05;;;;;;;23.85;33.42;96883.25;5076131;28;20072;-82
2022/06/02 14:14:21;;;;;;;1.38;1.00;;;;;;;23.84;33.92;96882.47;5075650;28;20070;-79
2022/06/02 14:17:02;;;;;;;1.35;0.95;;;;;;;23.81;33.25;96883.00;5074829;28;20063;-82
2022/06/02 14:20:01;;;;;;;1.38;0.93;;;;;;;23.78;33.90;96870.19;5075942;28;20493;-79
2022/06/02 14:22:38;;;;;;;2.05;0.90;;;;;;;23.79;34.55;96871.81;5075649;28;20127;-80
2022/06/02 14:25:14;;;;;;;1.20;0.80;;;;;;;23.83;34.82;96875.56;5075859;28;20045;-79
2022/06/02 14:27:51;;;;;;;5.45;1.30;;;;;;;23.88;34.92;96871.28;5062628;28;20059;-79
2022/06/02 14:30:26;;;;;;;3.22;1.27;;;;;;;23.90;34.24;96867.31;5061474;28;20556;-82
2022/06/02 14:33:01;;;;;;;1.92;1.10;;;;;;;23.92;34.24;96867.88;5061727;28;20053;-78
2022/06/02 14:35:44;;;;;;;2.28;1.38;;;;;;;23.94;34.03;96864.91;5063492;28;20571;-80
2022/06/02 14:38:31;;;;;;;1.08;1.08;;;;;;;23.93;34.16;96871.31;5063709;28;20052;-80
2022/06/02 14:41:06;;;;;;;2.90;1.00;;;;;;;23.91;33.78;96871.56;5064219;28;20147;-81
2022/06/02 14:43:54;;;;;;;2.65;0.90;;;;;;;23.89;34.16;96872.91;5064250;28;20049;-80
2022/06/02 14:46:39;;;;;;;1.35;1.02;;;;;;;23.84;34.25;96871.81;5063154;28;20067;-79
2022/06/02 14:49:28;;;;;;;1.42;1.20;;;;;;;23.83;33.90;96864.91;5062972;28;20462;-80
2022/06/02 14:52:15;;;;;;;1.50;1.10;;;;;;;23.77;33.67;96860.59;5062697;28;20079;-82
2022/06/02 14:54:55;;;;;;;1.95;1.00;;;;;;;23.74;34.09;96871.72;5062338;28;20072;-79
2022/06/02 14:57:38;;;;;;;3.25;1.00;;;;;;;23.74;33.84;96865.59;5061880;28;20568;-81
2022/06/02 15:00:20;;;;;;;3.67;1.55;;;;;;;23.70;34.32;96854.66;5060113;28;20045;-81
2022/06/02 15:03:26;;;;;;;1.65;0.95;;;;;;;23.70;34.87;96865.31;5061412;28;20076;-80
2022/06/02 15:05:56;;;;;;;1.02;0.90;;;;;;;23.69;34.06;96863.72;5061504;28;20128;-83
2022/06/02 15:08:56;;;;;;;2.17;0.85;;;;;;;23.67;34.23;96865.06;5060771;28;20090;-81
2022/06/02 15:11:50;;;;;;;2.83;1.08;;;;;;;23.67;34.56;96865.06;5061158;28;20466;-81
2022/06/02 15:14:27;;;;;;;2.95;0.82;;;;;;;23.65;34.79;96863.44;5061743;28;20045;-78
2022/06/02 15:17:26;;;;;;;0.95;0.93;;;;;;;23.64;34.72;96863.72;5061179;28;20095;-79
2022/06/02 15:20:09;;;;;;;1.65;1.17;;;;;;;23.61;34.65;96864.22;5061009;28;20107;-82
2022/06/02 15:23:31;;;;;;;1.75;0.93;;;;;;;23.61;34.59;96861.53;5061637;28;20056;-84
2022/06/02 15:26:10;;;;;;;2.08;0.85;;;;;;;23.62;34.18;96869.28;5062981;28;20049;-82
2022/06/02 15:29:17;;;;;;;3.35;1.02;;;;;;;23.59;34.34;96863.66;5063063;28;20055;-82
2022/06/02 15:32:10;;;;;;;3.20;1.88;;;;;;;23.59;34.91;96858.34;5063279;28;20072;-82
2022/06/02 15:35:07;;;;;;;1.05;0.90;;;;;;;23.62;35.99;96860.50;5059304;28;20037;-79
2022/06/02 15:38:18;;;;;;;6.60;1.13;;;;;;;23.63;35.37;96864.75;5057679;28;20108;-83
2022/06/02 15:41:13;;;;;;;1.67;1.10;;;;;;;23.60;35.54;96851.97;5064403;28;20124;-89
2022/06/02 15:44:11;;;;;;;2.88;0.90;;;;;;;23.60;35.75;96852.75;5063185;28;20524;-83
2022/06/02 15:47:22;;;;;;;1.48;1.20;;;;;;;23.61;35.90;96848.22;5062003;28;20057;-86
2022/06/02 15:50:31;;;;;;;2.17;1.00;;;;;;;23.61;35.11;96856.22;5041006;28;20072;-87
2022/06/02 15:53:32;;;;;;;1.95;1.00;;;;;;;23.59;35.33;96847.69;5042139;28;20080;-88
2022/06/02 15:56:29;;;;;;;2.35;1.25;;;;;;;23.58;36.34;96846.09;5050916;28;20529;-84
2022/06/02 15:59:32;;;;;;;3.22;1.50;;;;;;;23.56;35.76;96829.56;5042447;28;20048;-82
2022/06/02 16:02:31;;;;;;;1.85;0.98;;;;;;;23.56;36.26;96833.03;5059682;28;20560;-90
2022/06/02 16:05:32;;;;;;;2.00;0.90;;;;;;;23.55;35.77;96834.09;5062525;28;20052;-85
2022/06/02 16:08:37;;;;;;;2.92;0.82;;;;;;;23.55;34.81;96825.28;5065394;28;20048;-83
2022/06/02 16:11:33;;;;;;;1.67;1.00;;;;;;;23.51;35.03;96826.91;5060722;28;20132;-78
2022/06/02 16:14:46;;;;;;;4.55;1.20;;;;;;;23.50;35.17;96825.28;5064254;28;20045;-77
2022/06/02 16:17:58;;;;;;;3.95;1.00;;;;;;;23.49;35.67;96831.69;5055630;28;20406;-80
2022/06/02 16:21:11;;;;;;;2.08;1.15;;;;;;;23.51;36.55;96826.91;5019592;28;20051;-84
2022/06/02 16:24:19;;;;;;;14.18;1.67;;;;;;;23.50;36.89;96822.63;5002334;28;20069;-81
2022/06/02 16:27:28;;;;;;;2.70;0.88;;;;;;;23.51;36.81;96818.91;5056319;28;20079;-87
2022/06/02 16:30:12;;;;;;;2.05;1.20;;;;;;;23.51;36.37;96818.91;5004471;28;20053;-84
2022/06/02 16:33:21;;;;;;;5.90;1.00;;;;;;;23.50;36.19;96817.28;5063087;28;20065;-84
2022/06/02 16:36:16;;;;;;;4.72;1.60;;;;;;;23.50;36.21;96814.63;5062284;28;20151;-89
2022/06/02 16:38:57;;;;;;;2.72;1.35;;;;;;;23.50;36.23;96814.63;5066082;28;20145;-90
2022/06/02 16:41:39;;;;;;;0.80;0.80;;;;;;;23.49;35.88;96805.84;5064422;28;20444;-87
2022/06/02 16:44:53;;;;;;;3.72;1.55;;;;;;;23.49;36.03;96805.06;5065880;28;20052;-89
2022/06/02 16:47:39;;;;;;;1.63;1.00;;;;;;;23.43;36.62;96805.00;5063997;28;20049;-82
2022/06/02 16:50:41;;;;;;;2.03;1.52;;;;;;;23.38;36.14;96802.34;5063669;28;20129;-87
2022/06/02 16:57:01;;;;;;;;;;;;;;;;;;;;;
2022/06/02 16:59:50;;;;;;;2.33;1.10;;;;;;;23.32;36.99;96791.91;5076808;28;20033;-91
2022/06/02 17:02:57;;;;;;;3.05;1.27;;;;;;;23.29;36.62;96790.59;5063985;28;20045;-89
2022/06/02 17:05:55;;;;;;;1.30;0.88;;;;;;;23.29;36.54;96800.44;5038738;28;20048;-85
2022/06/02 17:08:36;;;;;;;3.15;1.48;;;;;;;23.26;36.10;96812.38;5065300;28;20059;-81
2022/06/02 17:11:13;;;;;;;2.45;1.02;;;;;;;23.20;35.92;96814.22;5062610;28;20065;-84
2022/06/02 17:13:50;;;;;;;1.20;1.10;;;;;;;23.15;36.46;96816.84;5064012;28;20044;-83
2022/06/02 17:16:43;;;;;;;1.20;1.10;;;;;;;23.12;36.45;96811.25;5044096;28;20061;-81
2022/06/02 17:19:40;;;;;;;1.95;1.42;;;;;;;23.10;36.24;96808.03;5051870;28;20435;-82
2022/06/02 17:22:29;;;;;;;2.90;1.58;;;;;;;23.07;36.68;96819.16;5043482;28;20136;-83
2022/06/02 17:25:33;;;;;;;2.67;1.40;;;;;;;23.01;36.28;96815.69;5049996;28;20048;-80
2022/06/02 17:28:22;;;;;;;1.10;1.10;;;;;;;22.97;36.42;96818.03;5062390;28;20053;-81
2022/06/02 17:30:58;;;;;;;2.22;1.17;;;;;;;22.94;36.68;96813.22;5064104;28;20049;-80